Azalea, OR

7:21 PM PDT on September 14, 2014 (GMT -0700)
wolf creek | Change Station
CLOSE
Current Station
Personal Weather Station
Location: Wolf Creek, OR
Elevation: 1503 ft
Nearby Weather Stations
Active Advisory: Fire Weather Watch

Elev 1503 ft 42.71 °N, 123.37 °W | Updated 2 seconds ago

Clear
Clear
73.6 °F
Feels Like 77 °F
N
0.0
Wind Variable Wind from NNW
Gusts 0.0 mph

Today
High -- | Low -- °F
--% Chance of Precip.
Yesterday
High -- | Low -- °F
Precip. -- in
6:51 AM 7:24 PM
Waning Gibbous, 60% visible
Pressure 29.77 in
Visibility 10.0 miles
Clouds Clear
Heat Index 77 °F
Dew Point 43 °F
Humidity 34%
Rainfall 0.00 in
Snow Depth 0 in , 0 in , 0 in
UV 0 out of 12
Pollen 4.20 out of 12
Air Quality Not available.
Flu Activity Not available.
METAR KRBG 150153Z AUTO 32010KT 10SM CLR 33/04 A2978 RMK AO2 SLP080 T03280039 $

More Conditions Fewer Conditions

Pressure 29.77 in
Visibility 10.0 miles
Clouds Clear
Heat Index 77 °F
Dew Point 43 °F
Humidity 34%
Rainfall 0.00 in
Snow Depth 0 in , 0 in , 0 in
UV 0 out of 12
Pollen 4.20 out of 12
Air Quality Not available.
Flu Activity Not available.
METAR KRBG 150153Z AUTO 32010KT 10SM CLR 33/04 A2978 RMK AO2 SLP080 T03280039 $

More Conditions Fewer Conditions

10-Day Weather Forecast

Almanac

Astronomy

Sep. 14, 2014 Rise Set
Actual Time 6:51 AM PDT 7:24 PM PDT
Civil Twilight 6:23 AM PDT 7:52 PM PDT
Nautical Twilight 5:49 AM PDT 8:26 PM PDT
Astronomical Twilight 5:14 AM PDT 9:00 PM PDT
Moon 11:13 PM PDT (9/14) 1:11 PM PDT (9/14)
Length of Visible Light 13h 29m
Length of Day
12h 32m
Tomorrow will be 2m 52s shorter.
Waning Gibbous, 60% of the Moon is Illuminated
Today
Waning Gibbous
Sep 15
Last Quarter
Sep 24
New
Oct 1
First Quarter
Oct 8
Full

Today's Extremes

State Highs State Lows

Community

WunderPhotos

Upload Photos

1,753,381 photos uploaded!

Nearby

Snow Depth

Station Depth Elevation
Blue Mountain Spring 0 in 5900 ft
Arbuckle Mountain 0 in 5400 ft
Daly Lake 0 in 3600 ft
Sevenmile Marsh 0 in 6200 ft
Wolf Creek 1 in 5700 ft

Earthquake Activity

City Distance Mag. Time & Date
No recent earthquake activity has been reported nearby.
Minimum magnitude displayed is 2.5.

Coastal Water Temperatures

Place Temperature
No Stations Reporting

Nearby Weather Stations